Decoded Metar for LFRU (MORLAIX in FRANCE) (IATA:MXN) | Meteo·Mobile Aviation Weather
aviador You're here:

LFRU Decoded Metar

MORLAIX in FRANCE
Report Time2019-03-21 15:00:00
UTC Time2019-03-21 15:33:57
Flight Rules mvfr MVFR
Wind040° at 06 kt
W.Decomp.*RWY 04: 6.0 kt HW 0.2 kt RCW
RWY 09: 4.0 kt HW 4.5 kt LCW
RWY 34: 2.8 kt HW 5.3 kt RCW
W.Rank040° ranks 18
Current wind is below 040° avg. (8.1)
Visibility9999 m
Phenomena:N/A
Clouds:Few 011 Hf
Overcast 021 Hf
Expected CloudBase > 800 ft AGL from Temp-Dew spread
Ceiling2,100 ft
Temp11°C (ISA -3)
Dew Point09°C (88% RH)
AAT8.6°C
QNH1032 hPa
Density Alt-614 ft
Elevation282 ft
Report Wrong Elevation
Raw Report
METAR LFRU 211500Z AUTO 04006KT 9999 FEW011 OVC021 11/09 Q1032=

Extra information for LFRU:More info

Metar Taf Metar & Taf Last 4 Metars F.Rules Stats Wind Profile Meteogram Temp Stats Airport Information Weather charts Add Link Nearby VenuesMetar ALERT Operation Metar Decoded Social comments